createdAt,value
2023-01-05T00:00:23.693Z,7.05
2023-01-05T00:03:26.300Z,12.15
2023-01-05T00:06:29.013Z,11.85
2023-01-05T00:09:31.658Z,29.30
2023-01-05T00:12:52.870Z,13.77
2023-01-05T00:16:14.256Z,19.98
2023-01-05T00:19:35.840Z,28.45
2023-01-05T00:22:46.902Z,9.52
2023-01-05T00:25:49.418Z,21.42
2023-01-05T00:28:52.151Z,25.75
2023-01-05T00:31:54.765Z,11.95
2023-01-05T00:34:58.693Z,8.52
2023-01-05T00:38:01.286Z,8.82
2023-01-05T00:41:03.755Z,6.97
2023-01-05T00:44:06.255Z,8.05
2023-01-05T00:47:08.912Z,12.95
2023-01-05T00:50:14.931Z,16.60
2023-01-05T00:53:17.729Z,22.00
2023-01-05T00:56:20.264Z,39.63
2023-01-05T00:59:22.884Z,15.65
2023-01-05T01:02:25.473Z,39.15
2023-01-05T01:05:28.113Z,26.63
2023-01-05T01:08:32.721Z,10.98
2023-01-05T01:11:35.599Z,40.90
2023-01-05T01:14:39.292Z,27.27
2023-01-05T01:17:41.846Z,32.42
2023-01-05T01:20:44.409Z,28.55
2023-01-05T01:23:46.970Z,43.50
2023-01-05T01:26:49.703Z,31.70
2023-01-05T01:29:52.410Z,11.65
2023-01-05T01:32:55.450Z,29.75
2023-01-05T01:35:58.579Z,20.38
2023-01-05T01:39:01.264Z,14.05
2023-01-05T01:45:24.135Z,5.45
2023-01-05T01:48:27.007Z,6.97
2023-01-05T01:51:48.066Z,8.73
2023-01-05T01:54:51.675Z,11.82
2023-01-05T01:57:54.448Z,13.90
2023-01-05T02:00:57.854Z,11.68
2023-01-05T02:04:02.274Z,4.68
2023-01-05T02:07:06.105Z,6.90
2023-01-05T02:10:09.834Z,9.95
2023-01-05T02:13:35.410Z,9.75
2023-01-05T02:16:55.021Z,8.45
2023-01-05T02:20:25.757Z,8.30
2023-01-05T02:23:47.142Z,5.13
2023-01-05T02:27:17.854Z,6.43
2023-01-05T02:30:54.367Z,7.50
2023-01-05T02:34:12.409Z,6.63
2023-01-05T02:37:41.649Z,17.80
2023-01-05T02:40:47.585Z,6.18
2023-01-05T02:43:50.600Z,8.80
2023-01-05T02:47:19.653Z,7.10
2023-01-05T02:50:34.629Z,7.65
2023-01-05T02:53:41.418Z,4.85
2023-01-05T02:56:52.115Z,9.03
2023-01-05T02:59:54.824Z,13.90
2023-01-05T03:03:04.680Z,9.68
2023-01-05T03:06:30.563Z,5.95
2023-01-05T03:09:39.404Z,6.93
2023-01-05T03:13:04.741Z,5.95
2023-01-05T03:16:09.531Z,1.52
2023-01-05T03:19:32.238Z,2.88
2023-01-05T03:22:54.777Z,5.70
2023-01-05T03:26:17.299Z,2.10
2023-01-05T03:29:39.029Z,7.93
2023-01-05T03:33:11.916Z,0.45
2023-01-05T03:36:18.878Z,3.10
2023-01-05T03:39:26.687Z,0.60
2023-01-05T03:42:31.321Z,1.55
2023-01-05T03:45:41.004Z,0.52
2023-01-05T03:48:46.045Z,0.57
2023-01-05T03:51:48.639Z,1.42
2023-01-05T03:54:51.869Z,0.45
2023-01-05T03:57:55.264Z,1.58
2023-01-05T04:00:57.870Z,4.40
2023-01-05T04:04:01.134Z,2.50
2023-01-05T04:07:04.099Z,4.85
2023-01-05T04:10:10.794Z,4.95
2023-01-05T04:13:13.495Z,0.65
2023-01-05T04:16:18.904Z,0.50
2023-01-05T04:19:21.843Z,1.70
2023-01-05T04:22:27.815Z,4.90
2023-01-05T04:25:31.286Z,0.50
2023-01-05T04:28:46.192Z,0.90
2023-01-05T04:31:48.780Z,0.90
2023-01-05T04:34:51.467Z,1.55
2023-01-05T04:37:56.542Z,1.05
2023-01-05T04:40:59.585Z,1.00
2023-01-05T04:44:02.515Z,0.60
2023-01-05T04:47:05.086Z,1.30
2023-01-05T04:50:10.248Z,4.93
2023-01-05T04:53:13.627Z,6.72
2023-01-05T04:56:18.403Z,2.30
2023-01-05T04:59:21.868Z,1.17
2023-01-05T05:02:27.540Z,3.30
2023-01-05T05:05:30.160Z,1.05
2023-01-05T05:08:33.061Z,1.23
2023-01-05T05:11:37.304Z,1.05
2023-01-05T05:14:39.896Z,1.73
2023-01-05T05:17:43.196Z,0.70
2023-01-05T05:20:50.895Z,1.48
2023-01-05T05:23:53.659Z,5.82
2023-01-05T05:26:57.587Z,12.48
2023-01-05T05:30:00.114Z,3.65
2023-01-05T05:33:02.620Z,6.43
2023-01-05T05:36:06.280Z,10.63
2023-01-05T05:39:08.780Z,11.38
2023-01-05T05:42:11.315Z,3.25
2023-01-05T05:45:13.833Z,0.93
2023-01-05T05:48:16.372Z,0.38
2023-01-05T05:51:20.067Z,1.25
2023-01-05T05:54:22.861Z,0.30
2023-01-05T05:57:25.688Z,0.40
2023-01-05T06:00:28.426Z,0.70
2023-01-05T06:03:31.046Z,1.00
2023-01-05T06:06:33.688Z,2.30
2023-01-05T06:09:36.179Z,0.43
2023-01-05T06:12:38.792Z,0.80
2023-01-05T06:15:42.431Z,0.25
2023-01-05T06:18:44.970Z,1.80
2023-01-05T06:21:47.466Z,0.95
2023-01-05T06:24:50.052Z,1.27
2023-01-05T06:27:52.685Z,1.38
2023-01-05T06:30:55.272Z,1.05
2023-01-05T06:33:57.786Z,0.38
2023-01-05T06:37:02.535Z,0.50
2023-01-05T06:40:05.981Z,1.08
2023-01-05T06:43:08.515Z,0.93
2023-01-05T06:46:11.240Z,1.80
2023-01-05T06:49:14.998Z,0.57
2023-01-05T06:52:17.675Z,0.73
2023-01-05T06:55:22.061Z,0.40
2023-01-05T06:58:30.184Z,1.35
2023-01-05T07:01:32.946Z,0.50
2023-01-05T07:04:35.690Z,1.08
2023-01-05T07:07:38.310Z,0.30
2023-01-05T07:10:41.288Z,0.70
2023-01-05T07:13:48.204Z,3.10
2023-01-05T07:16:50.992Z,0.20
2023-01-05T07:19:53.561Z,0.20
2023-01-05T07:22:56.135Z,0.20
2023-01-05T07:26:01.868Z,0.82
2023-01-05T07:29:04.776Z,0.30
2023-01-05T07:32:07.703Z,0.13
2023-01-05T07:35:10.341Z,3.40
2023-01-05T07:38:13.009Z,0.75
2023-01-05T07:41:16.074Z,0.85
2023-01-05T07:44:18.693Z,4.47
2023-01-05T07:47:21.269Z,4.97
2023-01-05T07:50:23.925Z,2.70
2023-01-05T07:53:26.488Z,0.88
2023-01-05T07:56:29.041Z,2.60
2023-01-05T07:59:31.611Z,0.55
2023-01-05T08:02:36.302Z,0.45
2023-01-05T08:05:39.081Z,8.40
2023-01-05T08:08:41.969Z,0.90
2023-01-05T08:11:44.705Z,2.75
2023-01-05T08:14:49.635Z,1.13
2023-01-05T08:17:52.161Z,3.28
2023-01-05T08:20:56.746Z,0.75
2023-01-05T08:24:00.045Z,0.65
2023-01-05T08:27:02.938Z,0.80
2023-01-05T08:30:06.220Z,3.08
2023-01-05T08:33:09.157Z,1.95
2023-01-05T08:36:14.381Z,1.67
2023-01-05T08:39:16.941Z,1.45
2023-01-05T08:42:19.499Z,4.93
2023-01-05T08:45:22.123Z,2.72
2023-01-05T08:48:24.890Z,2.45
2023-01-05T08:51:28.353Z,1.70
2023-01-05T08:54:31.248Z,0.50
2023-01-05T08:57:34.526Z,0.88
2023-01-05T09:00:39.787Z,0.60
2023-01-05T09:03:42.634Z,1.80
2023-01-05T09:06:45.351Z,1.17
2023-01-05T09:09:48.128Z,0.15
2023-01-05T09:12:50.843Z,1.02
2023-01-05T09:15:53.598Z,2.80
2023-01-05T09:18:57.889Z,0.35
2023-01-05T09:22:00.613Z,0.95
2023-01-05T09:25:03.935Z,1.35
2023-01-05T09:28:06.644Z,0.10
2023-01-05T09:31:17.515Z,2.40
2023-01-05T09:34:20.195Z,0.70
2023-01-05T09:37:22.719Z,2.10
2023-01-05T09:40:25.628Z,0.47
2023-01-05T09:43:33.983Z,0.98
2023-01-05T09:46:43.551Z,2.38
2023-01-05T09:49:48.243Z,0.93
2023-01-05T09:52:53.020Z,1.42
2023-01-05T09:55:56.041Z,1.25
2023-01-05T09:59:35.278Z,1.70
2023-01-05T10:02:37.873Z,1.58
2023-01-05T10:05:42.790Z,5.20
2023-01-05T10:08:49.102Z,1.30
2023-01-05T10:12:29.592Z,1.33
2023-01-05T10:15:44.362Z,1.30
2023-01-05T10:18:47.245Z,0.50
2023-01-05T10:22:24.956Z,0.98
2023-01-05T10:25:46.373Z,3.73
2023-01-05T10:28:52.000Z,2.50
2023-01-05T10:32:10.051Z,2.30
2023-01-05T10:39:06.211Z,1.63
2023-01-05T10:42:16.418Z,1.80
2023-01-05T10:45:20.740Z,2.00
2023-01-05T10:48:28.424Z,1.90
2023-01-05T10:51:34.216Z,2.28
2023-01-05T10:54:40.006Z,1.85
2023-01-05T10:57:43.302Z,1.05
2023-01-05T11:00:46.216Z,3.47
2023-01-05T11:07:12.432Z,6.38
2023-01-05T11:10:36.224Z,10.13
2023-01-05T11:13:46.970Z,2.15
2023-01-05T11:16:51.924Z,1.95
2023-01-05T11:19:56.657Z,1.33
2023-01-05T11:22:59.411Z,4.57
2023-01-05T11:26:30.961Z,1.10
2023-01-05T11:29:33.691Z,1.88
2023-01-05T11:32:36.366Z,2.28
2023-01-05T11:35:39.354Z,4.05
2023-01-05T11:38:42.146Z,2.45
2023-01-05T11:41:44.756Z,1.48
2023-01-05T11:44:58.460Z,4.20
2023-01-05T11:48:09.461Z,2.85
2023-01-05T11:51:41.174Z,2.00
2023-01-05T11:54:44.821Z,5.22
2023-01-05T11:57:52.704Z,3.33
2023-01-05T12:01:20.560Z,1.40
2023-01-05T12:04:35.608Z,1.88
2023-01-05T12:07:43.204Z,2.40
2023-01-05T12:11:03.273Z,4.70
2023-01-05T12:14:27.820Z,3.05
2023-01-05T12:17:34.695Z,0.80
2023-01-05T12:20:37.325Z,1.50
2023-01-05T12:23:52.252Z,1.42
2023-01-05T12:27:10.130Z,2.00
2023-01-05T12:34:13.353Z,0.75
2023-01-05T12:37:28.623Z,1.27
2023-01-05T12:41:24.172Z,1.80
2023-01-05T12:44:48.439Z,2.58
2023-01-05T12:48:10.701Z,4.97
2023-01-05T12:51:24.901Z,1.45
2023-01-05T12:54:47.757Z,1.38
2023-01-05T12:57:59.077Z,1.38
2023-01-05T13:01:03.502Z,2.22
2023-01-05T13:04:26.992Z,2.88
2023-01-05T13:07:36.189Z,0.50
2023-01-05T13:10:45.815Z,1.02
2023-01-05T13:14:00.200Z,0.40
2023-01-05T13:17:31.203Z,0.75
2023-01-05T13:20:41.365Z,6.93
2023-01-05T13:23:48.135Z,3.38
2023-01-05T13:26:50.812Z,5.60
2023-01-05T13:29:59.520Z,12.70
2023-01-05T13:33:20.681Z,7.55
2023-01-05T13:36:58.210Z,4.05
2023-01-05T13:40:11.303Z,2.73
2023-01-05T13:43:20.427Z,3.17
2023-01-05T13:47:01.061Z,2.67
2023-01-05T13:50:41.848Z,9.98
2023-01-05T13:53:45.953Z,4.13
2023-01-05T13:56:50.492Z,9.10
2023-01-05T14:00:07.299Z,11.77
2023-01-05T14:03:27.707Z,1.38
2023-01-05T14:06:33.451Z,3.50
2023-01-05T14:09:48.629Z,3.13
2023-01-05T14:12:54.401Z,1.63
2023-01-05T14:15:57.202Z,1.13
2023-01-05T14:19:24.199Z,1.63
2023-01-05T14:22:37.889Z,1.88
2023-01-05T14:25:40.374Z,1.25
2023-01-05T14:28:45.428Z,6.80
2023-01-05T14:31:48.605Z,3.20
2023-01-05T14:34:54.614Z,7.85
2023-01-05T14:38:23.649Z,1.40
2023-01-05T14:41:28.396Z,0.90
2023-01-05T14:44:43.051Z,1.42
2023-01-05T14:47:47.599Z,0.73
2023-01-05T14:51:08.659Z,2.97
2023-01-05T14:54:11.587Z,4.03
2023-01-05T14:57:26.657Z,1.25
2023-01-05T15:00:29.344Z,2.95
2023-01-05T15:03:50.223Z,1.23
2023-01-05T15:07:18.131Z,1.00
2023-01-05T15:10:50.238Z,1.33
2023-01-05T15:14:29.522Z,1.23
2023-01-05T15:17:54.017Z,1.23
2023-01-05T15:21:11.332Z,1.98
2023-01-05T15:24:44.871Z,0.57
2023-01-05T15:28:13.591Z,1.75
2023-01-05T15:31:36.331Z,0.75
2023-01-05T15:34:44.514Z,2.10
2023-01-05T15:37:48.971Z,1.48
2023-01-05T15:41:08.517Z,0.73
2023-01-05T15:44:16.688Z,1.52
2023-01-05T15:47:20.851Z,2.22
2023-01-05T15:50:27.934Z,1.20
2023-01-05T15:56:42.076Z,0.65
2023-01-05T15:59:48.500Z,0.60
2023-01-05T16:02:51.486Z,3.47
2023-01-05T16:06:24.756Z,1.95
2023-01-05T16:09:34.384Z,0.65
2023-01-05T16:12:37.467Z,5.47
2023-01-05T16:15:42.208Z,0.32
2023-01-05T16:18:52.566Z,1.13
2023-01-05T16:22:03.833Z,2.13
2023-01-05T16:25:24.427Z,1.05
2023-01-05T16:28:27.383Z,1.55
2023-01-05T16:31:34.859Z,1.05
2023-01-05T16:34:37.806Z,1.55
2023-01-05T16:37:40.407Z,0.82
2023-01-05T16:40:45.802Z,1.98
2023-01-05T16:43:59.979Z,0.55
2023-01-05T16:47:10.565Z,6.05
2023-01-05T16:50:22.866Z,6.75
2023-01-05T16:53:25.849Z,1.00
2023-01-05T16:56:32.274Z,3.35
2023-01-05T16:59:59.500Z,1.48
2023-01-05T17:03:04.995Z,3.03
2023-01-05T17:06:24.671Z,1.73
2023-01-05T17:09:28.210Z,1.80
2023-01-05T17:12:31.209Z,1.70
2023-01-05T17:15:36.203Z,1.80
2023-01-05T17:18:39.367Z,0.77
2023-01-05T17:22:01.218Z,0.80
2023-01-05T17:25:05.423Z,0.80
2023-01-05T17:28:10.347Z,0.97
2023-01-05T17:34:17.478Z,3.28
2023-01-05T17:37:20.235Z,1.85
2023-01-05T17:40:23.546Z,1.08
2023-01-05T17:43:26.904Z,1.25
2023-01-05T17:46:31.631Z,0.52
2023-01-05T17:49:34.338Z,0.55
2023-01-05T17:52:37.008Z,1.48
2023-01-05T17:55:39.842Z,0.75
2023-01-05T17:58:42.673Z,0.57
2023-01-05T18:05:09.686Z,0.47
2023-01-05T18:08:12.544Z,0.70
2023-01-05T18:11:17.264Z,1.45
2023-01-05T18:14:23.861Z,5.63
2023-01-05T18:17:27.212Z,1.13
2023-01-05T18:20:30.410Z,2.42
2023-01-05T18:23:33.598Z,1.58
2023-01-05T18:26:36.487Z,1.50
2023-01-05T18:29:41.151Z,0.85
2023-01-05T18:32:44.765Z,1.48
2023-01-05T18:35:50.422Z,1.58
2023-01-05T18:38:53.449Z,2.75
2023-01-05T18:41:57.229Z,2.28
2023-01-05T18:45:04.971Z,1.65
2023-01-05T18:48:17.502Z,1.03
2023-01-05T18:51:20.441Z,1.15
2023-01-05T18:54:23.580Z,2.03
2023-01-05T18:57:26.630Z,2.55
2023-01-05T19:00:30.118Z,11.60
2023-01-05T19:03:34.372Z,4.28
2023-01-05T19:06:38.235Z,0.63
2023-01-05T19:09:40.894Z,1.13
2023-01-05T19:12:43.644Z,0.55
2023-01-05T19:15:46.373Z,0.75
2023-01-05T19:18:51.326Z,1.65
2023-01-05T19:21:55.394Z,2.05
2023-01-05T19:24:59.165Z,0.65
2023-01-05T19:28:02.585Z,3.65
2023-01-05T19:31:07.417Z,2.15
2023-01-05T19:34:12.967Z,2.05
2023-01-05T19:37:16.007Z,2.67
2023-01-05T19:40:18.730Z,1.10
2023-01-05T19:43:21.503Z,1.20
2023-01-05T19:46:26.031Z,2.83
2023-01-05T19:49:28.896Z,0.77
2023-01-05T19:52:31.659Z,0.50
2023-01-05T19:55:39.370Z,0.65
2023-01-05T19:58:43.175Z,1.25
2023-01-05T20:01:46.380Z,4.10
2023-01-05T20:04:49.361Z,0.63
2023-01-05T20:07:52.152Z,4.78
2023-01-05T20:10:54.743Z,0.38
2023-01-05T20:13:57.462Z,1.85
2023-01-05T20:17:02.495Z,2.10
2023-01-05T20:20:05.945Z,0.88
2023-01-05T20:23:08.629Z,0.88
2023-01-05T20:26:16.832Z,2.22
2023-01-05T20:29:20.976Z,0.63
2023-01-05T20:32:25.422Z,0.30
2023-01-05T20:35:28.253Z,1.05
2023-01-05T20:38:32.605Z,1.25
2023-01-05T20:41:41.475Z,4.18
2023-01-05T20:44:46.590Z,0.52
2023-01-05T20:47:49.170Z,0.80
2023-01-05T20:50:51.957Z,2.05
2023-01-05T20:53:55.808Z,2.38
2023-01-05T20:56:58.418Z,1.25
2023-01-05T21:00:01.393Z,2.13
2023-01-05T21:03:04.635Z,0.63
2023-01-05T21:06:09.685Z,0.95
2023-01-05T21:09:12.818Z,0.20
2023-01-05T21:12:15.986Z,1.98
2023-01-05T21:15:18.789Z,0.40
2023-01-05T21:18:22.110Z,1.33
2023-01-05T21:21:26.204Z,0.63
2023-01-05T21:24:29.109Z,0.90
2023-01-05T21:27:31.811Z,0.30
2023-01-05T21:30:34.407Z,0.75
2023-01-05T21:33:37.869Z,1.10
2023-01-05T21:36:45.216Z,0.45
2023-01-05T21:39:48.508Z,1.00
2023-01-05T21:42:51.683Z,0.50
2023-01-05T21:45:54.997Z,0.63
2023-01-05T21:48:57.814Z,1.15
2023-01-05T21:52:19.291Z,1.60
2023-01-05T21:55:40.453Z,1.20
2023-01-05T21:58:43.222Z,0.40
2023-01-05T22:01:45.890Z,1.27
2023-01-05T22:04:49.223Z,1.33
2023-01-05T22:07:52.063Z,1.33
2023-01-05T22:10:56.227Z,0.77
2023-01-05T22:13:59.034Z,1.17
2023-01-05T22:17:01.966Z,0.93
2023-01-05T22:20:05.082Z,1.33
2023-01-05T22:23:07.693Z,1.00
2023-01-05T22:26:15.819Z,0.50
2023-01-05T22:29:19.507Z,0.52
2023-01-05T22:32:22.572Z,0.60
2023-01-05T22:35:26.017Z,0.55
2023-01-05T22:38:29.412Z,1.15
2023-01-05T22:41:32.052Z,0.35
2023-01-05T22:44:34.899Z,1.73
2023-01-05T22:47:37.601Z,0.57
2023-01-05T22:50:40.328Z,0.47
2023-01-05T22:53:44.305Z,0.40
2023-01-05T22:56:47.020Z,0.57
2023-01-05T22:59:49.580Z,0.40
2023-01-05T23:02:52.366Z,0.45
2023-01-05T23:05:55.017Z,0.40
2023-01-05T23:08:58.519Z,0.20
2023-01-05T23:12:01.910Z,0.40
2023-01-05T23:15:07.836Z,0.82
2023-01-05T23:18:10.385Z,2.53
2023-01-05T23:21:14.637Z,0.50
2023-01-05T23:24:17.271Z,0.38
2023-01-05T23:27:19.962Z,0.35
2023-01-05T23:30:22.590Z,0.77
2023-01-05T23:33:27.445Z,0.52
2023-01-05T23:36:30.107Z,0.15
2023-01-05T23:39:32.671Z,0.32
2023-01-05T23:42:44.301Z,2.90
2023-01-05T23:45:47.505Z,0.50
2023-01-05T23:48:51.568Z,0.20
2023-01-05T23:51:54.127Z,1.65
2023-01-05T23:54:56.679Z,0.30
2023-01-05T23:57:59.319Z,0.65
